createdAt,value
2018-07-05T00:02:33.180Z,10.40
2018-07-05T00:05:13.123Z,10.57
2018-07-05T00:07:53.159Z,9.57
2018-07-05T00:10:33.103Z,10.10
2018-07-05T00:13:13.176Z,8.90
2018-07-05T00:15:53.165Z,9.70
2018-07-05T00:18:33.147Z,8.73
2018-07-05T00:21:13.073Z,9.00
2018-07-05T00:23:53.036Z,8.40
2018-07-05T00:26:33.104Z,8.27
2018-07-05T00:29:13.072Z,9.33
2018-07-05T00:31:53.078Z,8.80
2018-07-05T00:34:33.095Z,8.43
2018-07-05T00:37:13.065Z,8.27
2018-07-05T00:39:53.509Z,7.70
2018-07-05T00:42:33.489Z,6.73
2018-07-05T00:45:13.632Z,7.40
2018-07-05T00:47:53.525Z,8.73
2018-07-05T00:50:33.626Z,8.00
2018-07-05T00:53:13.608Z,7.60
2018-07-05T00:55:53.459Z,7.00
2018-07-05T00:58:33.534Z,7.47
2018-07-05T01:01:13.509Z,7.80
2018-07-05T01:03:53.458Z,7.43
2018-07-05T01:06:33.564Z,7.40
2018-07-05T01:09:13.724Z,8.37
2018-07-05T01:11:53.723Z,8.30
2018-07-05T01:14:33.725Z,6.70
2018-07-05T01:17:14.616Z,6.80
2018-07-05T01:19:54.645Z,8.43
2018-07-05T01:22:34.690Z,8.20
2018-07-05T01:25:14.573Z,8.83
2018-07-05T01:27:54.517Z,7.53
2018-07-05T01:30:34.496Z,8.13
2018-07-05T01:33:14.573Z,7.60
2018-07-05T01:35:54.746Z,8.50
2018-07-05T01:38:34.878Z,8.10
2018-07-05T01:41:15.177Z,7.33
2018-07-05T01:43:55.364Z,8.23
2018-07-05T01:46:35.460Z,7.17
2018-07-05T01:49:15.590Z,7.27
2018-07-05T01:51:55.641Z,7.50
2018-07-05T01:54:35.760Z,6.80
2018-07-05T01:57:15.812Z,8.27
2018-07-05T01:59:56.003Z,7.90
2018-07-05T02:02:36.158Z,7.80
2018-07-05T02:05:16.128Z,8.13
2018-07-05T02:07:56.105Z,7.53
2018-07-05T02:10:35.937Z,8.13
2018-07-05T02:13:15.904Z,6.77
2018-07-05T02:15:55.797Z,7.10
2018-07-05T02:18:35.988Z,7.57
2018-07-05T02:21:16.048Z,6.80
2018-07-05T02:23:56.096Z,6.70
2018-07-05T02:26:36.454Z,6.33
2018-07-05T02:29:16.569Z,6.30
2018-07-05T02:31:56.479Z,5.70
2018-07-05T02:34:36.454Z,5.80
2018-07-05T02:37:21.915Z,5.33
2018-07-05T02:40:01.792Z,5.30
2018-07-05T02:42:41.852Z,4.93
2018-07-05T02:45:21.867Z,4.97
2018-07-05T02:48:01.923Z,5.37
2018-07-05T02:50:42.000Z,4.60
2018-07-05T02:53:21.969Z,4.67
2018-07-05T02:56:01.994Z,5.23
2018-07-05T02:58:41.942Z,5.13
2018-07-05T03:01:21.996Z,4.73
2018-07-05T03:04:01.906Z,4.57
2018-07-05T03:06:41.914Z,4.97
2018-07-05T03:09:22.000Z,4.57
2018-07-05T03:12:02.084Z,4.77
2018-07-05T03:14:42.155Z,5.73
2018-07-05T03:17:22.090Z,4.90
2018-07-05T03:20:02.157Z,5.30
2018-07-05T03:22:43.084Z,5.80
2018-07-05T03:25:23.227Z,5.43
2018-07-05T03:28:03.273Z,5.20
2018-07-05T03:30:43.432Z,4.57
2018-07-05T03:33:23.750Z,4.77
2018-07-05T03:36:03.795Z,6.10
2018-07-05T03:38:43.816Z,4.97
2018-07-05T03:41:23.937Z,5.27
2018-07-05T03:44:04.068Z,5.93
2018-07-05T03:46:44.103Z,4.90
2018-07-05T03:49:24.095Z,8.10
2018-07-05T03:52:04.088Z,6.20
2018-07-05T03:54:44.133Z,5.50
2018-07-05T03:57:24.357Z,6.10
2018-07-05T04:00:04.551Z,5.30
2018-07-05T04:02:44.705Z,5.40
2018-07-05T04:05:24.579Z,5.70
2018-07-05T04:08:04.573Z,6.30
2018-07-05T04:10:44.624Z,6.27
2018-07-05T04:13:24.670Z,6.40
2018-07-05T04:16:04.536Z,5.83
2018-07-05T04:18:44.655Z,6.50
2018-07-05T04:21:24.735Z,6.73
2018-07-05T04:24:04.958Z,6.40
2018-07-05T04:26:44.900Z,6.30
2018-07-05T04:29:24.772Z,5.20
2018-07-05T04:32:04.761Z,5.73
2018-07-05T04:34:44.766Z,4.87
2018-07-05T04:37:25.423Z,5.03
2018-07-05T04:40:05.518Z,4.33
2018-07-05T04:42:45.586Z,5.50
2018-07-05T04:45:25.649Z,4.90
2018-07-05T04:48:05.671Z,3.43
2018-07-05T04:50:45.801Z,3.90
2018-07-05T04:53:25.935Z,3.67
2018-07-05T04:56:05.957Z,3.50
2018-07-05T04:58:45.909Z,4.13
2018-07-05T05:01:25.888Z,3.80
2018-07-05T05:04:05.831Z,3.87
2018-07-05T05:06:45.895Z,2.90
2018-07-05T05:09:25.847Z,3.30
2018-07-05T05:12:05.906Z,2.00
2018-07-05T05:14:46.003Z,2.10
2018-07-05T05:17:26.036Z,2.23
2018-07-05T05:20:06.049Z,2.30
2018-07-05T05:22:46.092Z,2.47
2018-07-05T05:25:26.037Z,2.47
2018-07-05T05:28:06.270Z,2.23
2018-07-05T05:30:46.148Z,2.10
2018-07-05T05:33:26.243Z,1.70
2018-07-05T05:36:06.266Z,2.67
2018-07-05T05:38:46.294Z,2.20
2018-07-05T05:41:26.346Z,1.67
2018-07-05T05:44:06.267Z,1.63
2018-07-05T05:46:46.142Z,2.07
2018-07-05T05:49:26.161Z,1.60
2018-07-05T05:52:06.133Z,1.37
2018-07-05T05:54:46.083Z,2.33
2018-07-05T05:57:26.064Z,1.70
2018-07-05T06:00:06.328Z,1.60
2018-07-05T06:02:46.403Z,2.00
2018-07-05T06:05:26.506Z,1.80
2018-07-05T06:08:06.551Z,1.37
2018-07-05T06:10:46.466Z,1.50
2018-07-05T06:13:26.380Z,2.13
2018-07-05T06:16:06.261Z,1.77
2018-07-05T06:18:46.272Z,1.90
2018-07-05T06:21:26.441Z,3.07
2018-07-05T06:24:06.316Z,2.13
2018-07-05T06:26:46.375Z,2.00
2018-07-05T06:29:26.359Z,1.57
2018-07-05T06:32:06.439Z,1.70
2018-07-05T06:34:47.128Z,1.60
2018-07-05T06:37:27.271Z,1.37
2018-07-05T06:40:07.509Z,1.70
2018-07-05T06:42:47.644Z,1.40
2018-07-05T06:45:27.667Z,2.70
2018-07-05T06:48:07.936Z,3.27
2018-07-05T06:50:48.013Z,2.27
2018-07-05T06:53:28.107Z,2.20
2018-07-05T06:56:08.317Z,2.00
2018-07-05T06:58:48.352Z,1.90
2018-07-05T07:01:28.416Z,1.57
2018-07-05T07:04:08.709Z,1.90
2018-07-05T07:06:48.844Z,1.93
2018-07-05T07:09:29.052Z,2.13
2018-07-05T07:12:09.105Z,1.43
2018-07-05T07:14:49.212Z,1.80
2018-07-05T07:17:29.316Z,1.60
2018-07-05T07:20:09.265Z,2.17
2018-07-05T07:22:49.264Z,1.60
2018-07-05T07:25:29.293Z,2.00
2018-07-05T07:28:09.360Z,1.93
2018-07-05T07:30:49.281Z,3.13
2018-07-05T07:33:29.272Z,2.00
2018-07-05T07:36:09.295Z,1.70
2018-07-05T07:38:49.575Z,2.27
2018-07-05T07:41:29.672Z,1.80
2018-07-05T07:43:57.458Z,2.03
2018-07-05T07:46:25.198Z,2.00
2018-07-05T07:48:52.967Z,2.40
2018-07-05T07:51:21.191Z,1.53
2018-07-05T07:53:48.815Z,1.83
2018-07-05T07:56:16.567Z,2.00
2018-07-05T07:58:45.237Z,2.23
2018-07-05T08:01:12.947Z,1.80
2018-07-05T08:03:41.240Z,1.87
2018-07-05T08:06:09.418Z,2.60
2018-07-05T08:08:37.110Z,2.30
2018-07-05T08:11:04.776Z,1.77
2018-07-05T08:13:32.505Z,1.50
2018-07-05T08:16:00.248Z,1.80
2018-07-05T08:18:27.913Z,1.80
2018-07-05T08:20:55.622Z,1.60
2018-07-05T08:23:23.952Z,1.97
2018-07-05T08:25:51.671Z,1.70
2018-07-05T08:28:19.429Z,2.20
2018-07-05T08:30:47.260Z,2.07
2018-07-05T08:33:15.423Z,2.17
2018-07-05T08:35:43.187Z,2.07
2018-07-05T08:38:10.912Z,2.40
2018-07-05T08:40:38.617Z,2.47
2018-07-05T08:43:06.308Z,2.43
2018-07-05T08:45:34.078Z,2.20
2018-07-05T08:48:01.979Z,2.07
2018-07-05T08:50:29.725Z,2.03
2018-07-05T08:52:57.715Z,1.90
2018-07-05T08:55:27.464Z,2.23
2018-07-05T08:57:55.187Z,3.00
2018-07-05T09:00:22.862Z,2.30
2018-07-05T09:02:50.648Z,2.53
2018-07-05T09:05:19.153Z,2.70
2018-07-05T09:07:46.756Z,3.07
2018-07-05T09:10:14.495Z,2.33
2018-07-05T09:12:42.195Z,3.10
2018-07-05T09:15:09.928Z,2.70
2018-07-05T09:17:37.692Z,2.60
2018-07-05T09:20:05.815Z,2.53
2018-07-05T09:22:34.809Z,2.40
2018-07-05T09:25:02.600Z,3.00
2018-07-05T09:27:30.373Z,3.00
2018-07-05T09:29:58.082Z,2.70
2018-07-05T09:32:25.827Z,2.93
2018-07-05T09:34:53.555Z,2.77
2018-07-05T09:37:21.301Z,2.63
2018-07-05T09:39:49.004Z,2.20
2018-07-05T09:42:16.792Z,2.30
2018-07-05T09:44:44.579Z,2.30
2018-07-05T09:47:12.331Z,2.30
2018-07-05T09:49:40.137Z,2.43
2018-07-05T09:52:07.951Z,2.63
2018-07-05T09:54:35.612Z,2.10
2018-07-05T09:57:03.352Z,2.30
2018-07-05T09:59:31.040Z,2.40
2018-07-05T10:01:58.768Z,2.30
2018-07-05T10:04:26.441Z,2.10
2018-07-05T10:06:54.253Z,2.60
2018-07-05T10:09:21.952Z,2.37
2018-07-05T10:11:49.673Z,1.97
2018-07-05T10:14:17.360Z,2.10
2018-07-05T10:16:45.100Z,2.57
2018-07-05T10:19:12.927Z,2.27
2018-07-05T10:21:40.659Z,2.23
2018-07-05T10:24:08.387Z,2.80
2018-07-05T10:26:36.152Z,2.50
2018-07-05T10:29:16.451Z,2.50
2018-07-05T10:31:56.456Z,2.47
2018-07-05T10:34:24.199Z,2.20
2018-07-05T10:36:51.885Z,3.30
2018-07-05T10:39:20.192Z,2.67
2018-07-05T10:42:00.252Z,2.27
2018-07-05T10:44:40.268Z,2.60
2018-07-05T10:47:20.687Z,3.10
2018-07-05T10:50:00.757Z,2.80
2018-07-05T10:52:40.763Z,2.60
2018-07-05T10:55:21.177Z,3.07
2018-07-05T10:58:01.605Z,3.33
2018-07-05T11:00:41.757Z,2.97
2018-07-05T11:03:21.889Z,2.70
2018-07-05T11:06:02.011Z,2.97
2018-07-05T11:08:42.023Z,2.90
2018-07-05T11:11:21.980Z,3.13
2018-07-05T11:14:01.946Z,2.77
2018-07-05T11:16:41.970Z,2.90
2018-07-05T11:19:22.000Z,3.10
2018-07-05T11:22:02.073Z,2.87
2018-07-05T11:24:42.087Z,3.40
2018-07-05T11:27:22.249Z,3.30
2018-07-05T11:30:02.154Z,2.60
2018-07-05T11:32:42.311Z,2.60
2018-07-05T11:35:23.227Z,2.80
2018-07-05T11:38:03.396Z,3.20
2018-07-05T11:40:43.796Z,3.00
2018-07-05T11:43:23.850Z,3.00
2018-07-05T11:46:03.927Z,3.50
2018-07-05T11:48:44.223Z,3.53
2018-07-05T11:51:24.377Z,3.07
2018-07-05T11:54:04.340Z,3.20
2018-07-05T11:56:44.410Z,3.30
2018-07-05T11:59:24.494Z,3.03
2018-07-05T12:02:04.417Z,3.03
2018-07-05T12:04:44.432Z,3.43
2018-07-05T12:07:24.369Z,3.87
2018-07-05T12:10:04.411Z,4.37
2018-07-05T12:12:44.650Z,3.90
2018-07-05T12:15:24.656Z,3.47
2018-07-05T12:18:05.029Z,3.90
2018-07-05T12:20:45.077Z,3.73
2018-07-05T12:23:25.072Z,3.57
2018-07-05T12:26:05.174Z,3.63
2018-07-05T12:28:45.340Z,3.90
2018-07-05T12:31:25.427Z,4.00
2018-07-05T12:34:05.432Z,4.30
2018-07-05T12:36:45.394Z,4.00
2018-07-05T12:39:25.444Z,3.40
2018-07-05T12:42:05.574Z,3.80
2018-07-05T12:44:45.530Z,3.37
2018-07-05T12:47:25.540Z,3.20
2018-07-05T12:50:05.493Z,2.90
2018-07-05T14:08:55.028Z,6.20
2018-07-05T14:11:34.879Z,16.40
2018-07-05T14:14:14.895Z,7.90
2018-07-05T14:16:54.864Z,5.80
2018-07-05T14:19:34.795Z,2.77
2018-07-05T14:22:15.326Z,3.67
2018-07-05T14:24:55.487Z,3.57
2018-07-05T14:27:35.725Z,2.77
2018-07-05T14:30:15.747Z,2.00
2018-07-05T14:32:55.659Z,2.40
2018-07-05T14:35:35.652Z,1.93
2018-07-05T14:38:15.779Z,2.33
2018-07-05T14:40:55.918Z,2.60
2018-07-05T14:43:36.008Z,2.30
2018-07-05T14:46:15.943Z,2.37
2018-07-05T14:48:55.874Z,2.93
2018-07-05T14:51:35.802Z,2.87
2018-07-05T14:54:15.626Z,1.90
2018-07-05T14:56:55.743Z,1.97
2018-07-05T14:59:36.244Z,2.43
2018-07-05T15:02:16.278Z,2.13
2018-07-05T15:04:56.226Z,2.20
2018-07-05T15:07:36.222Z,2.90
2018-07-05T15:10:16.163Z,3.10
2018-07-05T15:12:56.140Z,2.27
2018-07-05T15:15:36.133Z,2.30
2018-07-05T15:18:16.137Z,2.90
2018-07-05T15:20:56.133Z,2.43
2018-07-05T15:23:36.247Z,2.70
2018-07-05T15:26:16.383Z,3.30
2018-07-05T15:28:56.388Z,2.87
2018-07-05T15:31:36.234Z,2.83
2018-07-05T15:34:16.393Z,3.47
2018-07-05T15:36:56.427Z,3.60
2018-07-05T15:39:36.954Z,2.50
2018-07-05T15:42:16.880Z,3.20
2018-07-05T15:44:56.827Z,2.77
2018-07-05T15:47:36.880Z,3.20
2018-07-05T15:50:16.797Z,3.33
2018-07-05T15:52:56.757Z,3.73
2018-07-05T15:55:36.911Z,3.30
2018-07-05T15:58:16.979Z,3.87
2018-07-05T16:00:56.966Z,3.70
2018-07-05T16:03:36.860Z,4.00
2018-07-05T16:06:16.843Z,2.63
2018-07-05T16:08:56.815Z,3.50
2018-07-05T16:11:36.647Z,3.57
2018-07-05T16:14:16.695Z,3.17
2018-07-05T16:16:56.636Z,3.43
2018-07-05T16:19:36.685Z,3.27
2018-07-05T16:22:16.635Z,3.20
2018-07-05T16:24:56.735Z,2.70
2018-07-05T16:27:36.928Z,3.20
2018-07-05T16:30:16.894Z,2.93
2018-07-05T16:32:57.383Z,2.80
2018-07-05T16:35:37.347Z,3.00
2018-07-05T16:38:17.588Z,2.97
2018-07-05T16:40:57.571Z,2.40
2018-07-05T16:43:37.765Z,2.47
2018-07-05T16:46:17.716Z,1.87
2018-07-05T16:48:57.705Z,1.90
2018-07-05T16:51:37.660Z,2.33
2018-07-05T16:54:17.720Z,1.73
2018-07-05T16:56:57.778Z,2.00
2018-07-05T16:59:37.745Z,2.30
2018-07-05T17:02:17.765Z,1.73
2018-07-05T17:04:57.808Z,2.30
2018-07-05T17:07:37.929Z,1.70
2018-07-05T17:10:17.963Z,1.83
2018-07-05T17:12:58.192Z,1.60
2018-07-05T17:19:19.613Z,2.37
2018-07-05T17:21:59.992Z,2.10
2018-07-05T17:24:40.294Z,1.77
2018-07-05T17:27:20.528Z,1.90
2018-07-05T17:30:00.658Z,1.77
2018-07-05T17:32:41.555Z,1.70
2018-07-05T17:35:21.839Z,1.90
2018-07-05T17:38:02.115Z,1.80
2018-07-05T17:40:42.753Z,2.23
2018-07-05T17:43:22.846Z,1.93
2018-07-05T17:46:03.319Z,2.30
2018-07-05T17:48:43.540Z,2.10
2018-07-05T17:51:23.859Z,1.70
2018-07-05T17:54:04.270Z,2.07
2018-07-05T17:56:44.474Z,2.50
2018-07-05T17:59:24.574Z,2.20
2018-07-05T18:02:05.595Z,1.90
2018-07-05T18:04:45.636Z,1.80
2018-07-05T18:07:25.560Z,1.63
2018-07-05T18:10:05.590Z,1.93
2018-07-05T18:12:45.780Z,1.93
2018-07-05T18:15:25.889Z,1.83
2018-07-05T18:18:06.067Z,2.07
2018-07-05T18:20:46.161Z,1.73
2018-07-05T18:23:26.297Z,2.10
2018-07-05T18:26:06.418Z,1.97
2018-07-05T18:28:46.428Z,2.60
2018-07-05T18:31:26.478Z,2.13
2018-07-05T18:34:06.602Z,2.50
2018-07-05T18:36:46.748Z,1.67
2018-07-05T18:39:26.875Z,2.50
2018-07-05T20:04:17.267Z,1.80
2018-07-05T20:06:57.507Z,1.50
2018-07-05T20:09:37.461Z,1.50
2018-07-05T20:12:17.650Z,1.57
2018-07-05T20:14:57.614Z,1.53
2018-07-05T20:17:38.628Z,1.37
2018-07-05T20:20:18.752Z,1.60
2018-07-05T20:22:58.632Z,1.60
2018-07-05T20:25:38.644Z,1.70
2018-07-05T20:28:18.680Z,1.60
2018-07-05T20:30:58.722Z,6.53
2018-07-05T20:33:38.727Z,9.53
2018-07-05T20:36:18.743Z,6.10
2018-07-05T20:38:58.720Z,17.70
2018-07-05T20:41:38.833Z,13.60
2018-07-05T20:44:18.985Z,12.60
2018-07-05T20:46:58.945Z,22.07
2018-07-05T20:49:38.909Z,6.67
2018-07-05T20:52:20.428Z,4.57
2018-07-05T20:55:01.016Z,3.80
2018-07-05T20:57:41.078Z,2.17
2018-07-05T21:00:21.176Z,2.07
2018-07-05T21:03:01.101Z,2.03
2018-07-05T21:05:41.083Z,2.23
2018-07-05T21:08:21.680Z,1.80
2018-07-05T21:11:01.660Z,2.03
2018-07-05T21:13:41.715Z,1.60
2018-07-05T21:16:21.683Z,2.20
2018-07-05T21:19:01.643Z,2.30
2018-07-05T21:21:41.698Z,2.57
2018-07-05T21:24:21.746Z,1.87
2018-07-05T21:27:01.799Z,1.60
2018-07-05T21:29:41.891Z,1.77
2018-07-05T21:32:22.137Z,2.13
2018-07-05T21:35:02.408Z,1.60
2018-07-05T21:37:42.731Z,1.63
2018-07-05T21:40:23.059Z,1.70
2018-07-05T21:43:02.974Z,2.60
2018-07-05T21:45:42.976Z,1.90
2018-07-05T21:48:23.386Z,1.97
2018-07-05T21:51:03.587Z,1.77
2018-07-05T21:53:43.637Z,8.40
2018-07-05T21:56:23.649Z,19.37
2018-07-05T21:59:03.639Z,10.57
2018-07-05T22:01:43.931Z,13.80
2018-07-05T22:04:24.063Z,7.97
2018-07-05T22:07:04.683Z,5.43
2018-07-05T22:09:44.722Z,6.07
2018-07-05T22:12:24.832Z,3.63
2018-07-05T22:15:04.844Z,21.50
2018-07-05T22:17:50.384Z,2.13
2018-07-05T22:20:35.971Z,2.30
2018-07-05T22:23:21.416Z,2.27
2018-07-05T22:27:10.864Z,2.00
2018-07-05T22:29:56.798Z,2.03
2018-07-05T22:32:36.739Z,1.77
2018-07-05T22:35:16.971Z,3.00
2018-07-05T22:37:57.032Z,2.80
2018-07-05T22:40:37.207Z,1.40
2018-07-05T22:43:17.314Z,1.80
2018-07-05T22:45:57.364Z,1.90
2018-07-05T22:48:37.491Z,1.43
2018-07-05T22:51:17.642Z,2.03
2018-07-05T22:53:57.646Z,1.83
2018-07-05T22:56:38.018Z,1.90
2018-07-05T22:59:18.191Z,2.30
2018-07-05T23:01:58.173Z,2.20
2018-07-05T23:04:38.176Z,5.40
2018-07-05T23:07:18.316Z,2.43
2018-07-05T23:09:58.463Z,1.57
2018-07-05T23:12:38.525Z,2.07
2018-07-05T23:15:18.604Z,1.93
2018-07-05T23:17:58.756Z,2.47
2018-07-05T23:20:38.677Z,2.90
2018-07-05T23:23:18.644Z,1.23
2018-07-05T23:25:58.750Z,2.23
2018-07-05T23:28:38.948Z,1.97
2018-07-05T23:31:19.157Z,2.00
2018-07-05T23:33:59.278Z,1.80
2018-07-05T23:36:39.538Z,1.50
2018-07-05T23:39:19.556Z,1.80
2018-07-05T23:41:59.347Z,2.17
2018-07-05T23:44:39.443Z,2.30
2018-07-05T23:47:19.762Z,1.90
2018-07-05T23:49:59.871Z,1.33
2018-07-05T23:52:39.930Z,2.03
2018-07-05T23:55:20.071Z,1.80
2018-07-05T23:58:00.068Z,1.70
